createdAt,value
2018-09-17T00:01:34.817Z,8.70
2018-09-17T00:04:15.694Z,6.67
2018-09-17T00:06:56.495Z,6.73
2018-09-17T00:09:37.287Z,9.47
2018-09-17T00:12:18.221Z,7.53
2018-09-17T00:14:59.381Z,8.63
2018-09-17T00:17:40.392Z,8.85
2018-09-17T00:20:21.661Z,6.90
2018-09-17T00:23:02.870Z,7.17
2018-09-17T00:25:44.253Z,6.80
2018-09-17T00:28:25.101Z,8.45
2018-09-17T00:31:06.807Z,8.20
2018-09-17T00:33:47.782Z,8.05
2018-09-17T00:36:28.294Z,6.73
2018-09-17T00:39:10.832Z,8.97
2018-09-17T00:41:52.013Z,6.83
2018-09-17T00:44:32.462Z,7.10
2018-09-17T00:47:13.542Z,7.28
2018-09-17T00:49:54.824Z,7.45
2018-09-17T00:52:35.440Z,6.63
2018-09-17T00:55:15.908Z,6.43
2018-09-17T00:57:56.817Z,6.40
2018-09-17T01:00:38.205Z,6.30
2018-09-17T01:03:19.297Z,8.30
2018-09-17T01:06:00.427Z,7.87
2018-09-17T01:08:41.486Z,6.67
2018-09-17T01:11:22.982Z,6.57
2018-09-17T01:14:04.433Z,7.92
2018-09-17T01:16:45.100Z,6.87
2018-09-17T01:19:26.668Z,7.13
2018-09-17T01:22:07.922Z,7.47
2018-09-17T01:24:49.477Z,9.75
2018-09-17T01:27:30.025Z,6.83
2018-09-17T01:30:11.474Z,6.53
2018-09-17T01:32:52.370Z,6.37
2018-09-17T01:35:33.519Z,7.67
2018-09-17T01:38:14.593Z,7.85
2018-09-17T01:40:55.493Z,9.03
2018-09-17T01:43:35.969Z,6.83
2018-09-17T01:46:17.179Z,6.93
2018-09-17T01:48:57.912Z,7.57
2018-09-17T01:51:38.794Z,8.20
2018-09-17T01:54:20.291Z,6.33
2018-09-17T01:57:01.898Z,7.42
2018-09-17T01:59:42.775Z,6.60
2018-09-17T02:02:23.857Z,7.05
2018-09-17T02:05:04.723Z,9.40
2018-09-17T02:07:45.555Z,10.05
2018-09-17T02:10:26.766Z,8.93
2018-09-17T02:13:07.750Z,8.93
2018-09-17T02:15:49.211Z,8.00
2018-09-17T02:18:30.614Z,7.10
2018-09-17T02:21:12.204Z,7.47
2018-09-17T02:23:53.029Z,8.10
2018-09-17T02:26:34.109Z,7.37
2018-09-17T02:29:15.480Z,8.20
2018-09-17T02:31:57.381Z,12.07
2018-09-17T02:34:38.553Z,10.48
2018-09-17T02:37:19.566Z,8.23
2018-09-17T02:40:00.604Z,7.85
2018-09-17T02:42:42.256Z,9.18
2018-09-17T02:45:23.089Z,8.55
2018-09-17T02:48:04.020Z,8.23
2018-09-17T02:50:44.805Z,12.30
2018-09-17T02:53:25.610Z,9.68
2018-09-17T02:56:06.588Z,8.75
2018-09-17T02:58:47.389Z,8.28
2018-09-17T03:01:29.457Z,7.60
2018-09-17T03:04:10.227Z,10.50
2018-09-17T03:06:51.522Z,8.10
2018-09-17T03:09:33.109Z,7.30
2018-09-17T03:12:13.989Z,7.47
2018-09-17T03:14:55.498Z,9.13
2018-09-17T03:17:36.307Z,9.95
2018-09-17T03:20:17.933Z,8.53
2018-09-17T03:22:58.796Z,9.23
2018-09-17T03:25:39.549Z,9.03
2018-09-17T03:28:21.524Z,16.60
2018-09-17T03:31:02.829Z,8.95
2018-09-17T03:33:43.969Z,8.25
2018-09-17T03:36:25.496Z,8.28
2018-09-17T03:39:07.529Z,10.05
2018-09-17T03:41:48.366Z,9.88
2018-09-17T03:44:29.389Z,9.83
2018-09-17T03:47:10.247Z,9.90
2018-09-17T03:49:51.566Z,9.15
2018-09-17T03:52:32.385Z,9.63
2018-09-17T03:55:13.097Z,8.85
2018-09-17T03:57:53.988Z,10.20
2018-09-17T04:00:35.756Z,12.85
2018-09-17T04:03:17.487Z,7.95
2018-09-17T04:05:59.099Z,9.63
2018-09-17T04:08:41.375Z,8.70
2018-09-17T04:11:22.598Z,9.98
2018-09-17T04:14:03.763Z,9.10
2018-09-17T04:16:44.852Z,8.33
2018-09-17T04:19:25.647Z,11.73
2018-09-17T04:22:06.969Z,10.03
2018-09-17T04:24:48.409Z,11.85
2018-09-17T04:27:29.148Z,10.10
2018-09-17T04:30:09.957Z,10.68
2018-09-17T04:32:51.778Z,8.95
2018-09-17T04:35:33.064Z,11.38
2018-09-17T04:38:14.300Z,9.38
2018-09-17T04:40:55.916Z,11.38
2018-09-17T04:43:37.317Z,11.12
2018-09-17T04:46:18.483Z,8.93
2018-09-17T04:48:59.609Z,8.08
2018-09-17T04:51:40.665Z,8.25
2018-09-17T04:54:21.503Z,10.48
2018-09-17T04:57:02.202Z,9.08
2018-09-17T04:59:43.803Z,11.05
2018-09-17T05:02:24.859Z,9.15
2018-09-17T05:05:06.306Z,11.22
2018-09-17T05:07:47.216Z,11.63
2018-09-17T05:10:28.125Z,12.60
2018-09-17T05:13:09.279Z,10.08
2018-09-17T05:15:50.125Z,8.93
2018-09-17T05:18:30.945Z,7.95
2018-09-17T05:21:11.879Z,10.20
2018-09-17T05:23:52.718Z,9.88
2018-09-17T05:26:33.649Z,9.83
2018-09-17T05:29:14.698Z,8.85
2018-09-17T05:31:56.364Z,8.60
2018-09-17T05:34:37.432Z,8.28
2018-09-17T05:37:18.236Z,9.98
2018-09-17T05:39:58.966Z,11.15
2018-09-17T05:42:39.875Z,8.38
2018-09-17T05:45:20.643Z,8.05
2018-09-17T05:48:01.593Z,8.13
2018-09-17T05:50:42.351Z,8.60
2018-09-17T05:53:23.630Z,11.15
2018-09-17T05:56:05.637Z,9.83
2018-09-17T05:58:46.557Z,8.40
2018-09-17T06:01:27.106Z,9.23
2018-09-17T06:04:08.390Z,10.13
2018-09-17T06:06:49.798Z,14.13
2018-09-17T06:09:30.973Z,9.47
2018-09-17T06:12:12.640Z,9.73
2018-09-17T06:14:53.207Z,8.37
2018-09-17T06:17:34.292Z,8.93
2018-09-17T06:20:15.522Z,10.93
2018-09-17T06:22:56.315Z,11.60
2018-09-17T06:25:36.754Z,8.63
2018-09-17T06:28:17.265Z,9.10
2018-09-17T06:30:58.385Z,8.20
2018-09-17T06:33:38.960Z,10.33
2018-09-17T06:36:19.610Z,10.07
2018-09-17T06:39:00.217Z,8.43
2018-09-17T06:41:41.014Z,12.50
2018-09-17T06:44:22.521Z,8.33
2018-09-17T06:47:03.040Z,8.63
2018-09-17T06:49:43.851Z,10.70
2018-09-17T06:52:24.848Z,10.43
2018-09-17T06:55:05.852Z,11.33
2018-09-17T06:57:46.869Z,10.93
2018-09-17T07:00:27.441Z,10.77
2018-09-17T07:03:07.943Z,10.60
2018-09-17T07:05:49.490Z,9.53
2018-09-17T07:08:30.058Z,15.97
2018-09-17T07:11:11.166Z,10.33
2018-09-17T07:13:52.775Z,7.73
2018-09-17T07:16:34.665Z,9.73
2018-09-17T07:19:15.624Z,10.30
2018-09-17T07:21:56.838Z,11.27
2018-09-17T07:24:37.709Z,9.30
2018-09-17T07:27:19.748Z,12.83
2018-09-17T07:30:01.053Z,10.10
2018-09-17T07:32:42.502Z,7.67
2018-09-17T07:35:23.330Z,5.30
2018-09-17T07:38:03.850Z,6.37
2018-09-17T07:40:45.433Z,7.80
2018-09-17T07:43:26.695Z,6.50
2018-09-17T07:46:07.709Z,5.10
2018-09-17T07:48:48.610Z,8.37
2018-09-17T07:51:29.333Z,5.30
2018-09-17T07:54:10.151Z,6.23
2018-09-17T07:56:50.940Z,6.17
2018-09-17T07:59:31.701Z,6.17
2018-09-17T08:02:12.806Z,6.50
2018-09-17T08:04:53.288Z,5.63
2018-09-17T08:07:34.374Z,6.17
2018-09-17T08:10:18.965Z,4.87
2018-09-17T08:13:00.173Z,7.03
2018-09-17T08:15:40.853Z,8.17
2018-09-17T08:18:22.120Z,7.17
2018-09-17T08:21:03.720Z,6.70
2018-09-17T08:23:45.298Z,5.60
2018-09-17T08:26:27.226Z,8.43
2018-09-17T08:29:08.473Z,8.53
2018-09-17T08:31:49.209Z,6.40
2018-09-17T08:34:31.144Z,6.37
2018-09-17T08:37:11.669Z,10.43
2018-09-17T08:39:52.507Z,6.33
2018-09-17T08:42:33.324Z,5.53
2018-09-17T08:45:14.501Z,9.43
2018-09-17T08:47:55.724Z,11.57
2018-09-17T08:50:36.617Z,10.00
2018-09-17T08:53:17.026Z,9.17
2018-09-17T08:56:04.447Z,6.93
2018-09-17T08:58:50.625Z,6.17
2018-09-17T09:01:37.801Z,6.47
2018-09-17T09:04:23.554Z,4.50
2018-09-17T09:07:11.188Z,6.17
2018-09-17T09:09:53.916Z,7.20
2018-09-17T09:12:39.536Z,7.13
2018-09-17T09:15:23.074Z,6.83
2018-09-17T09:18:05.444Z,6.27
2018-09-17T09:20:46.670Z,7.10
2018-09-17T09:23:27.998Z,6.67
2018-09-17T09:26:08.955Z,7.83
2018-09-17T09:28:49.645Z,4.97
2018-09-17T09:31:30.080Z,5.20
2018-09-17T09:34:10.960Z,7.37
2018-09-17T09:36:53.313Z,5.67
2018-09-17T09:39:34.373Z,11.30
2018-09-17T09:42:15.081Z,4.77
2018-09-17T09:44:55.689Z,5.83
2018-09-17T09:47:36.291Z,11.13
2018-09-17T09:50:17.154Z,4.67
2018-09-17T09:52:58.225Z,5.77
2018-09-17T09:55:38.940Z,5.87
2018-09-17T09:58:20.417Z,4.13
2018-09-17T10:01:06.517Z,5.03
2018-09-17T10:03:51.384Z,3.40
2018-09-17T10:06:31.965Z,3.13
2018-09-17T10:09:18.010Z,4.00
2018-09-17T10:12:04.025Z,3.23
2018-09-17T10:14:50.328Z,4.10
2018-09-17T10:17:37.244Z,4.97
2018-09-17T10:20:18.524Z,4.67
2018-09-17T10:22:59.301Z,4.20
2018-09-17T10:25:39.863Z,3.97
2018-09-17T10:28:20.453Z,4.50
2018-09-17T10:31:01.380Z,3.13
2018-09-17T10:33:42.568Z,3.43
2018-09-17T10:36:23.186Z,5.73
2018-09-17T10:39:04.291Z,2.53
2018-09-17T10:41:45.347Z,5.43
2018-09-17T10:44:26.567Z,4.27
2018-09-17T10:47:07.339Z,5.00
2018-09-17T10:49:47.817Z,3.30
2018-09-17T10:52:28.787Z,3.10
2018-09-17T10:55:10.416Z,3.30
2018-09-17T10:57:52.073Z,4.63
2018-09-17T11:00:32.566Z,3.23
2018-09-17T11:03:13.135Z,2.73
2018-09-17T11:05:54.144Z,2.80
2018-09-17T11:08:38.225Z,2.70
2018-09-17T11:11:22.969Z,4.50
2018-09-17T11:14:04.176Z,6.33
2018-09-17T11:16:45.127Z,5.17
2018-09-17T11:19:25.989Z,4.17
2018-09-17T11:22:07.322Z,4.87
2018-09-17T11:24:47.903Z,3.23
2018-09-17T11:27:29.165Z,3.17
2018-09-17T11:30:10.390Z,5.07
2018-09-17T11:32:53.016Z,3.27
2018-09-17T11:35:33.859Z,3.03
2018-09-17T11:38:15.674Z,4.27
2018-09-17T11:40:56.253Z,3.60
2018-09-17T11:43:36.778Z,4.63
2018-09-17T11:46:17.481Z,4.00
2018-09-17T11:48:58.488Z,3.07
2018-09-17T11:51:41.369Z,3.77
2018-09-17T11:54:22.149Z,3.20
2018-09-17T11:57:03.372Z,3.30
2018-09-17T11:59:44.090Z,3.50
2018-09-17T12:02:29.882Z,3.00
2018-09-17T12:05:16.381Z,4.63
2018-09-17T12:07:58.105Z,2.83
2018-09-17T12:10:38.793Z,3.43
2018-09-17T12:13:20.349Z,4.13
2018-09-17T12:16:01.933Z,2.93
2018-09-17T12:18:43.548Z,4.07
2018-09-17T12:21:24.800Z,3.00
2018-09-17T12:24:05.789Z,2.73
2018-09-17T12:26:47.698Z,2.73
2018-09-17T12:29:28.181Z,2.50
2018-09-17T12:32:09.015Z,3.17
2018-09-17T12:34:49.920Z,2.83
2018-09-17T12:37:30.740Z,2.63
2018-09-17T12:40:11.893Z,5.60
2018-09-17T12:42:53.515Z,3.70
2018-09-17T12:45:38.454Z,3.73
2018-09-17T12:48:19.109Z,3.37
2018-09-17T12:50:59.908Z,2.63
2018-09-17T12:53:41.037Z,2.73
2018-09-17T12:56:22.031Z,3.00
2018-09-17T12:59:03.008Z,5.83
2018-09-17T13:01:45.206Z,4.13
2018-09-17T13:04:25.837Z,3.37
2018-09-17T13:07:08.496Z,3.83
2018-09-17T13:09:50.743Z,3.70
2018-09-17T13:12:31.971Z,3.87
2018-09-17T13:15:16.163Z,4.13
2018-09-17T13:17:57.288Z,3.23
2018-09-17T13:20:38.570Z,4.97
2018-09-17T13:23:20.120Z,8.23
2018-09-17T13:26:01.241Z,4.37
2018-09-17T13:28:42.183Z,4.43
2018-09-17T13:31:23.052Z,3.53
2018-09-17T13:34:04.950Z,4.03
2018-09-17T13:36:45.559Z,4.57
2018-09-17T13:39:26.257Z,7.17
2018-09-17T13:42:08.644Z,3.30
2018-09-17T13:44:51.136Z,3.43
2018-09-17T13:47:32.572Z,4.90
2018-09-17T13:50:20.043Z,3.57
2018-09-17T13:53:00.977Z,4.87
2018-09-17T13:55:41.783Z,3.40
2018-09-17T13:58:22.496Z,7.53
2018-09-17T14:01:03.887Z,5.80
2018-09-17T14:03:44.543Z,3.40
2018-09-17T14:06:25.434Z,7.40
2018-09-17T14:09:10.014Z,5.57
2018-09-17T14:11:51.409Z,4.30
2018-09-17T14:14:32.505Z,5.47
2018-09-17T14:17:16.571Z,5.80
2018-09-17T14:19:57.292Z,5.10
2018-09-17T14:22:38.067Z,3.87
2018-09-17T14:25:18.601Z,4.43
2018-09-17T14:27:59.767Z,6.13
2018-09-17T14:30:40.449Z,7.00
2018-09-17T14:33:26.356Z,4.10
2018-09-17T14:36:07.294Z,4.13
2018-09-17T14:38:47.968Z,4.40
2018-09-17T14:41:29.514Z,5.23
2018-09-17T14:44:10.814Z,5.20
2018-09-17T14:46:52.417Z,6.33
2018-09-17T14:49:33.057Z,3.50
2018-09-17T14:52:13.737Z,6.40
2018-09-17T14:54:54.579Z,5.07
2018-09-17T14:57:35.172Z,4.50
2018-09-17T15:00:16.283Z,4.40
2018-09-17T15:02:56.784Z,4.30
2018-09-17T15:05:37.275Z,6.37
2018-09-17T15:08:18.278Z,5.23
2018-09-17T15:10:59.566Z,6.93
2018-09-17T15:13:40.940Z,7.73
2018-09-17T15:16:22.207Z,7.00
2018-09-17T15:19:04.249Z,5.30
2018-09-17T15:21:45.647Z,9.20
2018-09-17T15:24:26.164Z,4.37
2018-09-17T15:27:07.492Z,6.63
2018-09-17T15:29:47.973Z,4.03
2018-09-17T15:32:28.721Z,6.20
2018-09-17T15:35:09.650Z,6.33
2018-09-17T15:37:51.223Z,4.00
2018-09-17T15:40:32.286Z,5.40
2018-09-17T15:43:13.173Z,4.70
2018-09-17T15:45:53.764Z,4.47
2018-09-17T15:48:35.084Z,4.40
2018-09-17T15:51:16.649Z,6.00
2018-09-17T15:53:59.921Z,8.80
2018-09-17T15:56:40.688Z,4.80
2018-09-17T15:59:21.603Z,4.70
2018-09-17T16:02:02.112Z,8.13
2018-09-17T16:04:42.732Z,5.00
2018-09-17T16:07:23.989Z,7.47
2018-09-17T16:10:05.017Z,5.67
2018-09-17T16:12:45.957Z,5.30
2018-09-17T16:15:26.806Z,5.70
2018-09-17T16:18:07.773Z,8.90
2018-09-17T16:20:49.226Z,6.27
2018-09-17T16:23:29.681Z,6.97
2018-09-17T16:26:10.497Z,6.90
2018-09-17T16:28:52.666Z,7.27
2018-09-17T16:31:36.603Z,7.07
2018-09-17T16:34:17.288Z,6.53
2018-09-17T16:36:58.360Z,6.20
2018-09-17T16:39:39.393Z,5.40
2018-09-17T16:42:20.841Z,5.07
2018-09-17T16:45:02.366Z,4.73
2018-09-17T16:47:45.040Z,6.47
2018-09-17T16:50:25.835Z,4.67
2018-09-17T16:53:06.964Z,4.60
2018-09-17T16:55:48.308Z,8.57
2018-09-17T16:58:29.235Z,5.63
2018-09-17T17:01:10.143Z,5.27
2018-09-17T17:03:52.384Z,6.93
2018-09-17T17:06:33.258Z,10.47
2018-09-17T17:09:14.045Z,8.23
2018-09-17T17:11:55.784Z,6.73
2018-09-17T17:14:36.728Z,7.20
2018-09-17T17:17:18.109Z,8.67
2018-09-17T17:19:58.726Z,7.37
2018-09-17T17:22:39.402Z,7.80
2018-09-17T17:25:20.790Z,14.40
2018-09-17T17:28:02.389Z,8.67
2018-09-17T17:30:44.256Z,11.50
2018-09-17T17:33:25.313Z,11.70
2018-09-17T17:36:07.275Z,9.80
2018-09-17T17:38:48.112Z,6.77
2018-09-17T17:41:28.756Z,10.30
2018-09-17T17:44:10.291Z,8.67
2018-09-17T17:46:51.381Z,16.37
2018-09-17T17:49:32.097Z,10.30
2018-09-17T17:52:13.072Z,14.30
2018-09-17T17:54:54.185Z,8.37
2018-09-17T17:57:35.021Z,8.97
2018-09-17T18:00:16.405Z,8.17
2018-09-17T18:02:57.506Z,11.93
2018-09-17T18:05:38.580Z,6.47
2018-09-17T18:08:19.501Z,7.53
2018-09-17T18:11:00.136Z,7.63
2018-09-17T18:13:41.153Z,8.80
2018-09-17T18:16:26.214Z,9.57
2018-09-17T18:19:07.335Z,7.90
2018-09-17T18:21:48.242Z,8.10
2018-09-17T18:24:29.115Z,8.07
2018-09-17T18:27:09.887Z,7.60
2018-09-17T18:29:50.479Z,8.30
2018-09-17T18:32:30.992Z,8.07
2018-09-17T18:35:11.519Z,10.73
2018-09-17T18:37:52.353Z,9.90
2018-09-17T18:40:33.359Z,6.57
2018-09-17T18:43:14.262Z,6.77
2018-09-17T18:45:55.296Z,7.17
2018-09-17T18:48:36.020Z,8.60
2018-09-17T18:51:18.740Z,8.53
2018-09-17T18:53:59.565Z,10.83
2018-09-17T18:56:41.097Z,9.67
2018-09-17T18:59:22.164Z,7.10
2018-09-17T19:02:03.633Z,9.27
2018-09-17T19:04:44.524Z,10.63
2018-09-17T19:07:25.695Z,9.17
2018-09-17T19:10:06.865Z,8.33
2018-09-17T19:12:48.355Z,10.00
2018-09-17T19:15:34.971Z,10.37
2018-09-17T19:18:17.854Z,10.60
2018-09-17T19:20:59.105Z,9.17
2018-09-17T19:23:44.812Z,9.07
2018-09-17T19:26:25.791Z,10.03
2018-09-17T19:29:12.125Z,8.50
2018-09-17T19:31:53.317Z,10.63
2018-09-17T19:34:34.509Z,6.80
2018-09-17T19:37:20.852Z,8.80
2018-09-17T19:40:07.513Z,8.90
2018-09-17T19:42:49.077Z,8.23
2018-09-17T19:45:35.216Z,10.70
2018-09-17T19:48:15.747Z,8.00
2018-09-17T19:51:01.882Z,8.50
2018-09-17T19:53:42.755Z,8.57
2018-09-17T19:56:23.873Z,12.97
2018-09-17T19:59:09.857Z,10.33
2018-09-17T20:01:50.422Z,11.03
2018-09-17T20:04:36.626Z,8.73
2018-09-17T20:07:17.522Z,9.57
2018-09-17T20:09:59.321Z,7.57
2018-09-17T20:12:42.109Z,12.20
2018-09-17T20:15:23.687Z,7.90
2018-09-17T20:18:04.931Z,7.93
2018-09-17T20:20:46.247Z,9.50
2018-09-17T20:23:27.684Z,10.07
2018-09-17T20:26:08.695Z,8.53
2018-09-17T20:28:49.608Z,10.07
2018-09-17T20:31:31.328Z,9.57
2018-09-17T20:34:11.998Z,9.70
2018-09-17T20:36:52.908Z,11.23
2018-09-17T20:39:33.903Z,9.60
2018-09-17T20:42:14.547Z,10.83
2018-09-17T20:44:56.123Z,10.67
2018-09-17T20:47:36.908Z,10.67
2018-09-17T20:50:18.029Z,10.17
2018-09-17T20:52:58.692Z,9.77
2018-09-17T20:55:39.273Z,11.50
2018-09-17T20:58:20.358Z,11.47
2018-09-17T21:01:01.602Z,10.47
2018-09-17T21:03:42.274Z,13.23
2018-09-17T21:06:25.468Z,12.40
2018-09-17T21:09:10.493Z,12.57
2018-09-17T21:11:52.234Z,11.30
2018-09-17T21:14:32.797Z,12.93
2018-09-17T21:17:13.150Z,12.53
2018-09-17T21:19:54.823Z,16.10
2018-09-17T21:22:35.260Z,10.23
2018-09-17T21:25:16.006Z,13.63
2018-09-17T21:27:57.107Z,10.10
2018-09-17T21:30:38.065Z,10.27
2018-09-17T21:33:18.753Z,10.80
2018-09-17T21:35:59.338Z,8.57
2018-09-17T21:38:40.568Z,9.73
2018-09-17T21:41:21.408Z,8.43
2018-09-17T21:44:01.947Z,9.47
2018-09-17T21:46:43.046Z,10.27
2018-09-17T21:49:23.603Z,8.43
2018-09-17T21:52:04.222Z,9.97
2018-09-17T21:54:44.766Z,11.27
2018-09-17T21:57:25.780Z,9.20
2018-09-17T22:00:06.689Z,8.77
2018-09-17T22:02:47.225Z,9.40
2018-09-17T22:05:28.292Z,10.23
2018-09-17T22:08:09.341Z,9.97
2018-09-17T22:10:50.212Z,9.83
2018-09-17T22:13:30.947Z,13.13
2018-09-17T22:16:12.029Z,8.90
2018-09-17T22:18:52.792Z,9.13
2018-09-17T22:21:33.685Z,13.77
2018-09-17T22:24:14.598Z,12.13
2018-09-17T22:26:55.166Z,9.10
2018-09-17T22:29:36.194Z,9.37
2018-09-17T22:32:16.919Z,8.43
2018-09-17T22:34:59.164Z,10.57
2018-09-17T22:37:40.531Z,9.07
2018-09-17T22:40:21.268Z,11.30
2018-09-17T22:43:02.332Z,10.23
2018-09-17T22:45:43.485Z,11.23
2018-09-17T22:48:24.245Z,9.70
2018-09-17T22:51:04.888Z,10.23
2018-09-17T22:53:45.463Z,10.60
2018-09-17T22:56:26.627Z,12.00
2018-09-17T22:59:07.553Z,11.17
2018-09-17T23:01:48.294Z,9.27
2018-09-17T23:04:29.540Z,12.40
2018-09-17T23:07:10.309Z,10.43
2018-09-17T23:09:50.775Z,10.43
2018-09-17T23:12:31.847Z,9.20
2018-09-17T23:15:12.914Z,9.97
2018-09-17T23:17:54.366Z,11.33
2018-09-17T23:20:35.354Z,12.93
2018-09-17T23:23:16.572Z,11.07
2018-09-17T23:25:57.131Z,11.07
2018-09-17T23:28:38.056Z,9.40
2018-09-17T23:31:18.803Z,10.77
2018-09-17T23:33:59.542Z,13.80
2018-09-17T23:36:40.151Z,13.50
2018-09-17T23:39:21.056Z,10.60
2018-09-17T23:42:01.577Z,12.30
2018-09-17T23:44:42.067Z,11.23
2018-09-17T23:47:22.573Z,11.40
2018-09-17T23:50:03.791Z,12.50
2018-09-17T23:52:44.621Z,14.13
2018-09-17T23:55:25.288Z,12.63
2018-09-17T23:58:06.321Z,13.00
